createdAt,value
2022-09-24T00:00:02.128Z,11.40
2022-09-24T00:06:07.749Z,11.40
2022-09-24T00:12:13.368Z,11.30
2022-09-24T00:18:17.399Z,11.20
2022-09-24T00:24:37.975Z,11.00
2022-09-24T00:30:44.284Z,10.90
2022-09-24T00:36:47.030Z,10.70
2022-09-24T00:42:49.053Z,10.60
2022-09-24T00:48:54.368Z,10.50
2022-09-24T00:54:58.913Z,10.40
2022-09-24T01:01:05.817Z,10.40
2022-09-24T01:07:08.609Z,10.30
2022-09-24T01:13:23.718Z,10.20
2022-09-24T01:19:53.605Z,10.20
2022-09-24T01:26:49.805Z,10.30
2022-09-24T01:32:56.807Z,10.30
2022-09-24T01:38:59.978Z,10.40
2022-09-24T01:45:06.358Z,10.40
2022-09-24T01:51:16.350Z,10.40
2022-09-24T01:57:43.857Z,10.40
2022-09-24T02:03:52.628Z,10.40
2022-09-24T02:09:54.504Z,10.30
2022-09-24T02:16:02.393Z,10.30
2022-09-24T02:22:05.373Z,10.30
2022-09-24T02:28:08.465Z,10.30
2022-09-24T02:34:21.650Z,10.30
2022-09-24T02:40:23.698Z,10.30
2022-09-24T02:46:25.692Z,10.30
2022-09-24T02:52:28.141Z,10.30
2022-09-24T02:58:30.927Z,10.30
2022-09-24T03:04:32.764Z,10.30
2022-09-24T03:10:35.071Z,10.30
2022-09-24T03:16:37.196Z,10.30
2022-09-24T03:22:39.419Z,10.30
2022-09-24T03:28:41.832Z,10.30
2022-09-24T03:34:43.619Z,10.30
2022-09-24T03:40:45.625Z,10.20
2022-09-24T03:46:48.351Z,10.20
2022-09-24T03:52:50.222Z,10.20
2022-09-24T03:58:52.136Z,10.20
2022-09-24T04:04:54.093Z,10.10
2022-09-24T04:10:55.983Z,10.10
2022-09-24T04:16:58.998Z,10.10
2022-09-24T04:23:01.246Z,10.10
2022-09-24T04:29:03.559Z,10.00
2022-09-24T04:35:07.705Z,10.10
2022-09-24T04:41:10.164Z,10.00
2022-09-24T04:47:11.963Z,10.00
2022-09-24T04:53:14.325Z,10.00
2022-09-24T04:59:16.262Z,10.00
2022-09-24T05:05:18.088Z,10.00
2022-09-24T05:11:19.989Z,10.00
2022-09-24T05:17:21.906Z,10.00
2022-09-24T05:23:23.740Z,10.00
2022-09-24T05:29:25.775Z,10.00
2022-09-24T05:35:27.606Z,10.00
2022-09-24T05:41:29.449Z,9.90
2022-09-24T05:47:31.266Z,9.90
2022-09-24T05:53:33.967Z,9.90
2022-09-24T05:59:35.759Z,9.90
2022-09-24T06:05:37.618Z,10.00
2022-09-24T06:11:40.970Z,9.90
2022-09-24T06:17:43.018Z,10.10
2022-09-24T06:23:47.538Z,10.20
2022-09-24T06:29:49.382Z,10.30
2022-09-24T06:35:51.257Z,10.30
2022-09-24T06:41:53.665Z,10.40
2022-09-24T06:48:01.986Z,10.40
2022-09-24T06:54:03.901Z,10.50
2022-09-24T07:00:06.361Z,10.70
2022-09-24T07:06:08.334Z,10.90
2022-09-24T07:12:10.540Z,11.10
2022-09-24T07:18:12.683Z,11.30
2022-09-24T07:24:14.538Z,11.50
2022-09-24T07:30:16.948Z,11.90
2022-09-24T07:36:19.160Z,12.00
2022-09-24T07:42:21.732Z,12.20
2022-09-24T07:48:24.336Z,12.80
2022-09-24T07:54:26.489Z,13.30
2022-09-24T08:00:28.417Z,13.80
2022-09-24T08:06:38.264Z,14.10
2022-09-24T08:12:40.817Z,14.50
2022-09-24T08:18:43.677Z,15.00
2022-09-24T08:24:45.499Z,15.10
2022-09-24T08:30:47.442Z,15.40
2022-09-24T08:36:50.376Z,15.90
2022-09-24T08:43:36.440Z,16.60
2022-09-24T08:49:45.585Z,16.80
2022-09-24T08:55:51.308Z,16.60
2022-09-24T09:02:13.408Z,16.40
2022-09-24T09:09:11.835Z,16.30
2022-09-24T09:15:19.228Z,16.20
2022-09-24T09:21:30.090Z,16.50
2022-09-24T09:27:32.384Z,16.80
2022-09-24T09:34:24.519Z,17.10
2022-09-24T09:40:33.907Z,17.50
2022-09-24T09:46:42.613Z,17.40
2022-09-24T09:52:44.626Z,17.40
2022-09-24T09:58:53.367Z,17.60
2022-09-24T10:04:58.388Z,17.70
2022-09-24T10:11:03.352Z,18.00
2022-09-24T10:17:06.945Z,18.00
2022-09-24T10:23:21.051Z,18.30
2022-09-24T10:29:49.645Z,18.60
2022-09-24T10:36:08.994Z,19.00
2022-09-24T10:42:28.578Z,19.30
2022-09-24T10:48:44.543Z,19.60
2022-09-24T10:55:07.780Z,19.50
2022-09-24T11:01:21.164Z,19.80
2022-09-24T11:07:45.713Z,19.90
2022-09-24T11:14:08.873Z,19.60
2022-09-24T11:20:47.058Z,19.50
2022-09-24T11:26:49.004Z,19.50
2022-09-24T11:33:11.309Z,19.40
2022-09-24T11:39:42.059Z,19.60
2022-09-24T11:46:15.072Z,19.40
2022-09-24T11:52:40.233Z,19.30
2022-09-24T11:58:59.024Z,19.50
2022-09-24T12:05:04.248Z,19.80
2022-09-24T12:11:19.693Z,19.90
2022-09-24T12:17:32.160Z,19.80
2022-09-24T12:23:46.208Z,19.70
2022-09-24T12:30:22.920Z,19.70
2022-09-24T12:37:03.242Z,19.40
2022-09-24T12:43:19.310Z,19.50
2022-09-24T12:49:37.138Z,19.60
2022-09-24T12:55:48.081Z,19.40
2022-09-24T13:02:31.692Z,19.10
2022-09-24T13:15:31.478Z,18.80
2022-09-24T13:21:38.853Z,18.90
2022-09-24T13:29:06.423Z,18.70
2022-09-24T13:34:55.344Z,18.60
2022-09-24T13:41:10.490Z,18.80
2022-09-24T13:47:28.825Z,18.70
2022-09-24T13:53:42.324Z,18.50
2022-09-24T13:59:44.259Z,18.50
2022-09-24T14:05:48.965Z,18.40
2022-09-24T14:11:53.179Z,18.40
2022-09-24T14:17:57.554Z,18.20
2022-09-24T14:24:20.703Z,18.10
2022-09-24T14:30:25.014Z,18.20
2022-09-24T14:36:29.367Z,18.00
2022-09-24T14:42:46.001Z,17.80
2022-09-24T14:48:48.005Z,17.50
2022-09-24T14:55:20.813Z,17.40
2022-09-24T15:01:30.837Z,17.10
2022-09-24T15:07:34.950Z,16.80
2022-09-24T15:13:38.237Z,16.70
2022-09-24T15:19:43.296Z,16.50
2022-09-24T15:25:45.676Z,16.40
2022-09-24T15:31:47.774Z,16.20
2022-09-24T15:37:49.860Z,16.20
2022-09-24T15:43:57.045Z,16.30
2022-09-24T15:49:58.891Z,16.20
2022-09-24T15:56:03.046Z,16.10
2022-09-24T16:02:18.713Z,16.10
2022-09-24T16:08:20.936Z,16.00
2022-09-24T16:14:25.037Z,15.80
2022-09-24T16:20:27.132Z,15.70
2022-09-24T16:26:33.502Z,15.50
2022-09-24T16:32:35.540Z,15.40
2022-09-24T16:38:38.657Z,15.20
2022-09-24T16:44:43.633Z,15.10
2022-09-24T16:50:45.470Z,14.90
2022-09-24T16:56:52.125Z,14.90
2022-09-24T17:02:54.114Z,14.80
2022-09-24T17:09:15.162Z,14.70
2022-09-24T17:15:20.611Z,14.60
2022-09-24T17:21:23.561Z,14.50
2022-09-24T17:27:26.024Z,14.40
2022-09-24T17:33:42.918Z,14.30
2022-09-24T17:39:47.919Z,14.10
2022-09-24T17:46:03.111Z,14.00
2022-09-24T17:52:06.742Z,13.90
2022-09-24T17:58:08.548Z,13.80
2022-09-24T18:04:18.880Z,13.70
2022-09-24T18:10:20.682Z,13.60
2022-09-24T18:16:25.399Z,13.60
2022-09-24T18:29:50.069Z,13.60
2022-09-24T18:35:55.675Z,13.50
2022-09-24T18:41:57.661Z,13.40
2022-09-24T18:47:59.721Z,13.40
2022-09-24T18:54:04.015Z,13.30
2022-09-24T19:00:26.707Z,13.20
2022-09-24T19:06:30.413Z,13.10
2022-09-24T19:12:32.570Z,13.20
2022-09-24T19:18:35.685Z,13.10
2022-09-24T19:24:37.499Z,13.10
2022-09-24T19:30:41.606Z,13.10
2022-09-24T19:36:45.023Z,13.10
2022-09-24T19:42:50.433Z,13.10
2022-09-24T19:48:53.989Z,13.00
2022-09-24T19:54:56.310Z,13.00
2022-09-24T20:01:07.024Z,13.00
2022-09-24T20:07:08.916Z,12.90
2022-09-24T20:13:13.101Z,12.90
2022-09-24T20:19:15.386Z,12.90
2022-09-24T20:25:17.320Z,12.80
2022-09-24T20:31:21.006Z,12.80
2022-09-24T20:37:23.077Z,12.80
2022-09-24T20:43:25.640Z,12.70
2022-09-24T20:49:28.101Z,12.60
2022-09-24T20:55:30.227Z,12.60
2022-09-24T21:01:32.154Z,12.50
2022-09-24T21:07:35.375Z,12.40
2022-09-24T21:13:41.961Z,12.30
2022-09-24T21:19:43.777Z,12.10
2022-09-24T21:25:54.693Z,12.00
2022-09-24T21:31:56.788Z,11.90
2022-09-24T21:37:58.542Z,11.80
2022-09-24T21:44:00.907Z,11.70
2022-09-24T21:50:02.722Z,11.70
2022-09-24T21:56:06.352Z,11.70
2022-09-24T22:02:10.068Z,11.70
2022-09-24T22:08:14.294Z,11.80
2022-09-24T22:14:16.137Z,11.80
2022-09-24T22:20:17.963Z,11.80
2022-09-24T22:26:19.877Z,11.90
2022-09-24T22:32:21.792Z,11.70
2022-09-24T22:38:23.622Z,11.70
2022-09-24T22:44:25.519Z,11.60
2022-09-24T22:50:27.364Z,11.60
2022-09-24T22:56:30.171Z,11.50
2022-09-24T23:02:33.741Z,11.40
2022-09-24T23:08:36.860Z,11.30
2022-09-24T23:14:38.710Z,11.20
2022-09-24T23:20:40.508Z,10.90
2022-09-24T23:26:42.737Z,10.80
2022-09-24T23:32:44.660Z,10.60
2022-09-24T23:38:47.334Z,10.50
2022-09-24T23:44:49.480Z,10.40
2022-09-24T23:50:51.715Z,10.30
2022-09-24T23:56:53.577Z,10.10
